Time;durP1;ratioP1;P1;durP2;ratioP2;P2;SDS_P1;SDS_P2;PMS_P1;PMS_P2;Temp;Humidity;BMP_temperature;BMP_pressure;BME280_temperature;BME280_humidity;BME280_pressure;Samples;Min_cycle;Max_cycle;Signal;HPM_P1;HPM_P2
2022/06/26 00:00:19;;;;;;;1.80;1.70;;;18.50;99.90;;;;;;5074867;28;20433;-81
2022/06/26 00:02:46;;;;;;;3.35;1.65;;;18.50;99.90;;;;;;5062439;28;20037;-81
2022/06/26 00:05:12;;;;;;;1.70;1.60;;;18.50;99.90;;;;;;5072926;28;20020;-81
2022/06/26 00:07:38;;;;;;;2.15;1.80;;;18.40;99.90;;;;;;5074001;28;20132;-81
2022/06/26 00:10:05;;;;;;;2.38;1.73;;;18.40;99.90;;;;;;5073758;28;20471;-81
2022/06/26 00:12:31;;;;;;;2.67;1.92;;;18.40;99.90;;;;;;5059809;28;20029;-81
2022/06/26 00:14:57;;;;;;;1.90;1.67;;;18.30;99.90;;;;;;5072879;28;20028;-81
2022/06/26 00:17:22;;;;;;;1.52;1.42;;;18.30;99.90;;;;;;5072707;28;20089;-81
2022/06/26 00:19:48;;;;;;;4.47;1.80;;;18.30;99.90;;;;;;5070825;28;20024;-81
2022/06/26 00:22:13;;;;;;;10.35;2.13;;;18.30;99.90;;;;;;5060224;28;20040;-81
2022/06/26 00:24:41;;;;;;;2.70;1.67;;;18.20;99.90;;;;;;5055054;28;20033;-81
2022/06/26 00:27:07;;;;;;;3.47;1.83;;;18.20;99.90;;;;;;5072761;28;20062;-81
2022/06/26 00:29:33;;;;;;;2.60;2.40;;;18.20;99.90;;;;;;5072035;28;20401;-81
2022/06/26 00:32:00;;;;;;;6.35;1.85;;;18.10;99.90;;;;;;5072185;28;20033;-81
2022/06/26 00:34:26;;;;;;;5.25;2.75;;;18.00;99.90;;;;;;5067248;28;20025;-81
2022/06/26 00:36:51;;;;;;;5.10;2.08;;;18.00;99.90;;;;;;5068839;28;20354;-81
2022/06/26 00:39:17;;;;;;;3.20;2.00;;;18.00;99.90;;;;;;5066407;28;20020;-81
2022/06/26 00:41:42;;;;;;;2.17;1.75;;;17.90;99.90;;;;;;5074660;28;20032;-81
2022/06/26 00:44:16;;;;;;;2.40;1.90;;;18.00;99.90;;;;;;5072220;28;20036;-81
2022/06/26 00:46:43;;;;;;;1.70;1.60;;;18.00;99.90;;;;;;5071913;28;20037;-81
2022/06/26 00:49:08;;;;;;;2.42;1.70;;;18.00;99.90;;;;;;5073585;28;20021;-81
2022/06/26 00:51:38;;;;;;;2.33;1.83;;;18.00;99.90;;;;;;5071937;28;20024;-81
2022/06/26 00:54:04;;;;;;;1.73;1.63;;;18.00;99.90;;;;;;5072413;28;20048;-81
2022/06/26 00:56:29;;;;;;;1.63;1.52;;;18.00;99.90;;;;;;5070368;28;20482;-81
2022/06/26 00:58:55;;;;;;;1.98;1.63;;;18.00;99.90;;;;;;5072999;28;20029;-82
2022/06/26 01:01:21;;;;;;;5.15;1.95;;;18.00;99.90;;;;;;5056434;28;20103;-81
2022/06/26 01:03:46;;;;;;;1.50;1.40;;;18.00;99.90;;;;;;5072110;28;20028;-81
2022/06/26 01:06:12;;;;;;;9.77;2.78;;;18.00;99.90;;;;;;5071678;28;20024;-81
2022/06/26 01:08:38;;;;;;;4.13;1.90;;;18.00;99.90;;;;;;5071383;28;20052;-82
2022/06/26 01:11:17;;;;;;;4.80;2.10;;;18.00;99.90;;;;;;5073281;28;20036;-82
2022/06/26 01:13:47;;;;;;;3.28;1.88;;;18.00;99.90;;;;;;5072376;28;20116;-82
2022/06/26 01:16:14;;;;;;;5.20;2.13;;;17.90;99.90;;;;;;5055918;28;20032;-82
2022/06/26 01:18:41;;;;;;;4.15;2.08;;;17.90;99.90;;;;;;5063363;28;20032;-81
2022/06/26 01:21:06;;;;;;;6.90;1.90;;;17.80;99.90;;;;;;5071797;28;20362;-81
2022/06/26 01:23:32;;;;;;;2.45;1.90;;;17.80;99.90;;;;;;5071204;28;20033;-81
2022/06/26 01:25:58;;;;;;;2.13;1.60;;;17.80;99.90;;;;;;5070683;28;20081;-81
2022/06/26 01:28:23;;;;;;;3.67;1.90;;;17.70;99.90;;;;;;5071203;28;20397;-81
2022/06/26 01:30:49;;;;;;;2.90;1.98;;;17.70;99.90;;;;;;5070152;28;20550;-81
2022/06/26 01:33:14;;;;;;;3.85;2.20;;;17.70;99.90;;;;;;5070082;28;20055;-81
2022/06/26 01:35:41;;;;;;;3.05;2.17;;;17.60;99.90;;;;;;5068409;28;20035;-81
2022/06/26 01:38:22;;;;;;;2.72;1.58;;;17.60;99.90;;;;;;5070733;28;20024;-81
2022/06/26 01:40:51;;;;;;;1.60;1.50;;;17.60;99.90;;;;;;5071289;28;20017;-81
2022/06/26 01:43:21;;;;;;;3.90;1.90;;;17.60;99.90;;;;;;5072107;28;20109;-81
2022/06/26 01:45:49;;;;;;;7.55;2.17;;;17.60;99.90;;;;;;5070120;28;20028;-81
2022/06/26 01:48:16;;;;;;;4.30;1.83;;;17.60;99.90;;;;;;5077578;28;20170;-81
2022/06/26 01:50:44;;;;;;;1.73;1.55;;;17.60;99.90;;;;;;5071448;28;20017;-81
2022/06/26 01:53:11;;;;;;;1.83;1.60;;;17.60;99.90;;;;;;5072921;28;20048;-81
2022/06/26 01:55:37;;;;;;;2.00;1.48;;;17.50;99.90;;;;;;5063900;28;20029;-81
2022/06/26 01:58:03;;;;;;;3.45;1.75;;;17.60;99.90;;;;;;5068365;28;20028;-81
2022/06/26 02:00:29;;;;;;;3.60;1.48;;;17.60;99.90;;;;;;5070081;28;20062;-81
2022/06/26 02:02:56;;;;;;;5.93;1.85;;;17.60;99.90;;;;;;5071503;28;20116;-81
2022/06/26 02:05:21;;;;;;;1.70;1.60;;;17.60;99.90;;;;;;5070945;28;20026;-81
2022/06/26 02:07:47;;;;;;;1.90;1.80;;;17.60;99.90;;;;;;5067086;28;20127;-81
2022/06/26 02:15:41;;;;;;;2.70;1.40;;;17.60;99.90;;;;;;5068368;28;20391;-81
2022/06/26 02:18:06;;;;;;;1.50;1.40;;;17.60;99.90;;;;;;5072913;28;20020;-81
2022/06/26 02:20:33;;;;;;;1.48;1.38;;;17.60;99.90;;;;;;5070477;28;20024;-81
2022/06/26 02:22:58;;;;;;;1.65;1.55;;;17.60;99.90;;;;;;5071025;28;20056;-81
2022/06/26 02:25:24;;;;;;;1.75;1.65;;;17.60;99.90;;;;;;5054139;28;20071;-81
2022/06/26 02:27:50;;;;;;;1.95;1.50;;;17.60;99.90;;;;;;5052977;28;20029;-81
2022/06/26 02:30:15;;;;;;;4.63;1.63;;;17.60;99.90;;;;;;5060680;28;20061;-81
2022/06/26 02:32:42;;;;;;;1.80;1.45;;;17.60;99.90;;;;;;5067694;28;20403;-81
2022/06/26 02:35:07;;;;;;;4.72;1.80;;;17.50;99.90;;;;;;5068720;28;20036;-81
2022/06/26 02:37:34;;;;;;;3.70;1.95;;;17.50;99.90;;;;;;5071500;28;20024;-81
2022/06/26 02:40:01;;;;;;;4.65;2.28;;;17.50;99.90;;;;;;5067909;28;20074;-81
2022/06/26 02:42:26;;;;;;;2.63;1.85;;;17.40;99.90;;;;;;5071662;28;20029;-81
2022/06/26 02:44:54;;;;;;;2.40;1.88;;;17.40;99.90;;;;;;5069591;28;20025;-81
2022/06/26 02:47:19;;;;;;;3.80;1.88;;;17.40;99.90;;;;;;5056802;28;20048;-81
2022/06/26 02:49:45;;;;;;;3.22;1.92;;;17.40;99.90;;;;;;5086428;28;20032;-80
2022/06/26 02:52:10;;;;;;;5.40;2.17;;;17.40;99.90;;;;;;5069198;28;20534;-81
2022/06/26 02:54:36;;;;;;;4.22;2.03;;;17.40;99.90;;;;;;5072058;28;20035;-81
2022/06/26 02:57:02;;;;;;;4.82;1.80;;;17.30;99.90;;;;;;5065489;28;20025;-81
2022/06/26 02:59:28;;;;;;;9.40;2.70;;;17.30;99.90;;;;;;5065094;28;20079;-81
2022/06/26 03:01:53;;;;;;;6.80;1.90;;;17.30;99.90;;;;;;5068706;28;20115;-81
2022/06/26 03:04:19;;;;;;;1.90;1.73;;;17.30;99.90;;;;;;5070018;28;20031;-81
2022/06/26 03:06:45;;;;;;;2.25;2.05;;;17.30;99.90;;;;;;5069063;28;20377;-81
2022/06/26 03:09:10;;;;;;;1.90;1.70;;;17.30;99.90;;;;;;5070833;28;20051;-81
2022/06/26 03:11:36;;;;;;;3.22;1.70;;;17.30;99.90;;;;;;5069773;28;20020;-81
2022/06/26 03:14:02;;;;;;;1.65;1.55;;;17.30;99.90;;;;;;5072045;28;20029;-81
2022/06/26 03:16:28;;;;;;;1.63;1.52;;;17.30;99.90;;;;;;5062627;28;20032;-81
2022/06/26 03:18:54;;;;;;;3.42;2.10;;;17.30;99.90;;;;;;5071211;28;20028;-81
2022/06/26 03:21:23;;;;;;;3.92;2.20;;;17.30;99.90;;;;;;5074592;28;20021;-81
2022/06/26 03:24:03;;;;;;;2.45;1.85;;;17.30;99.90;;;;;;5074162;28;20054;-81
2022/06/26 03:26:34;;;;;;;2.50;2.10;;;17.30;99.90;;;;;;5072596;28;20622;-81
2022/06/26 03:29:08;;;;;;;3.28;1.58;;;17.30;99.90;;;;;;5055815;28;20115;-81
2022/06/26 03:31:33;;;;;;;1.90;1.80;;;17.30;99.90;;;;;;5070989;28;20099;-81
2022/06/26 03:34:00;;;;;;;6.38;1.85;;;17.20;99.90;;;;;;5072140;28;20157;-81
2022/06/26 03:36:27;;;;;;;3.10;2.20;;;17.20;99.90;;;;;;5070358;28;20028;-81
2022/06/26 03:38:54;;;;;;;1.90;1.80;;;17.20;99.90;;;;;;5074552;28;20100;-82
2022/06/26 03:41:20;;;;;;;3.83;1.90;;;17.20;99.90;;;;;;5074636;28;20051;-81
2022/06/26 03:43:48;;;;;;;2.28;1.90;;;17.30;99.90;;;;;;5078799;28;20032;-81
2022/06/26 03:46:14;;;;;;;6.10;2.05;;;17.30;99.90;;;;;;5074333;28;20486;-81
2022/06/26 03:48:42;;;;;;;5.40;1.77;;;17.30;99.90;;;;;;5074823;28;20052;-81
2022/06/26 03:51:08;;;;;;;3.22;1.77;;;17.30;99.90;;;;;;5067366;28;20500;-81
2022/06/26 03:53:35;;;;;;;4.68;2.30;;;17.40;99.90;;;;;;5059088;28;20025;-81
2022/06/26 03:56:01;;;;;;;3.35;1.90;;;17.50;99.90;;;;;;5076583;28;20511;-81
2022/06/26 03:58:27;;;;;;;3.88;2.40;;;17.50;99.90;;;;;;5095784;28;20032;-82
2022/06/26 04:00:53;;;;;;;4.45;2.03;;;17.60;99.90;;;;;;5080750;28;20032;-82
2022/06/26 04:03:20;;;;;;;4.20;2.13;;;17.70;99.90;;;;;;5074340;28;20036;-81
2022/06/26 04:05:46;;;;;;;3.90;2.05;;;17.70;99.90;;;;;;5070481;28;20051;-81
2022/06/26 04:08:12;;;;;;;2.00;1.90;;;17.80;99.90;;;;;;5069379;28;20045;-81
2022/06/26 04:10:38;;;;;;;6.35;2.00;;;17.80;99.90;;;;;;5074013;28;20028;-81
2022/06/26 04:13:06;;;;;;;10.73;2.30;;;17.90;99.90;;;;;;5073304;28;20033;-81
2022/06/26 04:15:33;;;;;;;1.77;1.63;;;18.00;99.90;;;;;;5072662;28;20357;-81
2022/06/26 04:17:59;;;;;;;3.85;2.30;;;18.00;99.90;;;;;;5064566;28;20075;-82
2022/06/26 04:20:25;;;;;;;3.97;2.13;;;18.10;99.90;;;;;;5072880;28;20033;-82
2022/06/26 04:22:56;;;;;;;1.90;1.73;;;18.10;99.90;;;;;;5062028;28;20036;-82
2022/06/26 04:25:31;;;;;;;1.70;1.60;;;18.20;99.90;;;;;;5070942;28;20028;-82
2022/06/26 04:27:57;;;;;;;2.42;1.88;;;18.20;99.90;;;;;;5070884;28;20024;-82
2022/06/26 04:30:27;;;;;;;1.70;1.60;;;18.30;99.90;;;;;;5060821;28;20113;-82
2022/06/26 04:32:52;;;;;;;6.78;2.13;;;18.40;99.90;;;;;;5075040;28;20438;-82
2022/06/26 04:35:18;;;;;;;2.53;1.70;;;18.40;99.90;;;;;;5071001;28;20129;-82
2022/06/26 04:37:44;;;;;;;1.92;1.60;;;18.50;99.90;;;;;;5072322;28;20024;-82
2022/06/26 04:40:11;;;;;;;1.50;1.40;;;18.50;99.90;;;;;;5078191;28;20330;-82
2022/06/26 04:42:38;;;;;;;1.50;1.45;;;18.50;99.90;;;;;;5074094;28;20461;-82
2022/06/26 04:45:06;;;;;;;1.40;1.27;;;18.60;99.90;;;;;;5074526;28;20025;-82
2022/06/26 04:47:32;;;;;;;2.70;1.63;;;18.60;99.90;;;;;;5074718;28;20027;-82
2022/06/26 04:49:58;;;;;;;2.20;1.83;;;18.60;99.90;;;;;;5074097;28;20036;-82
2022/06/26 04:52:23;;;;;;;4.50;1.70;;;18.70;99.90;;;;;;5071770;28;20028;-82
2022/06/26 04:54:50;;;;;;;1.70;1.55;;;18.70;99.90;;;;;;5069424;28;20385;-82
2022/06/26 04:57:16;;;;;;;3.45;2.33;;;18.70;99.90;;;;;;5070223;28;20025;-82
2022/06/26 04:59:43;;;;;;;1.48;1.45;;;18.70;99.90;;;;;;5066112;28;20023;-82
2022/06/26 05:02:09;;;;;;;1.70;1.60;;;18.80;99.90;;;;;;5060807;28;20024;-82
2022/06/26 05:04:35;;;;;;;3.13;1.80;;;18.80;99.90;;;;;;5074396;28;20115;-82
2022/06/26 05:07:01;;;;;;;3.70;1.80;;;18.80;99.90;;;;;;5073815;28;20441;-82
2022/06/26 05:09:26;;;;;;;5.47;2.17;;;18.90;99.90;;;;;;5069741;28;20468;-82
2022/06/26 05:11:52;;;;;;;2.28;2.08;;;18.90;99.90;;;;;;5060768;28;20028;-82
2022/06/26 05:14:18;;;;;;;1.88;1.45;;;19.00;99.90;;;;;;5072302;28;20052;-82
2022/06/26 05:16:44;;;;;;;1.80;1.70;;;19.10;99.90;;;;;;5070902;28;20090;-82
2022/06/26 05:19:10;;;;;;;2.63;2.00;;;19.10;99.90;;;;;;5072791;28;20698;-83
2022/06/26 05:21:38;;;;;;;2.30;2.10;;;19.10;99.90;;;;;;5066552;28;20145;-82
2022/06/26 05:24:04;;;;;;;5.05;2.03;;;19.20;99.90;;;;;;5069787;28;20489;-82
2022/06/26 05:26:30;;;;;;;6.15;1.92;;;19.20;99.90;;;;;;5069188;28;20024;-82
2022/06/26 05:28:55;;;;;;;2.50;2.10;;;19.30;99.90;;;;;;5065502;28;20051;-82
2022/06/26 05:31:21;;;;;;;1.73;1.63;;;19.40;99.90;;;;;;5070799;28;20194;-82
2022/06/26 05:33:47;;;;;;;2.20;1.90;;;19.40;99.90;;;;;;5070556;28;20416;-82
2022/06/26 05:36:13;;;;;;;6.35;2.72;;;19.50;99.90;;;;;;5071285;28;20107;-82
2022/06/26 05:38:39;;;;;;;2.47;2.28;;;19.50;99.90;;;;;;5071327;28;20025;-82
2022/06/26 05:41:05;;;;;;;3.45;2.03;;;19.60;99.90;;;;;;5065170;28;20037;-82
2022/06/26 05:43:31;;;;;;;6.25;2.08;;;19.70;99.90;;;;;;5071610;28;20463;-82
2022/06/26 05:45:57;;;;;;;6.75;2.10;;;19.90;99.90;;;;;;5066766;28;20057;-82
2022/06/26 05:48:24;;;;;;;3.65;1.90;;;19.90;99.90;;;;;;5069234;28;20104;-81
2022/06/26 05:50:50;;;;;;;4.97;1.88;;;20.00;99.90;;;;;;5072217;28;20031;-82
2022/06/26 05:53:17;;;;;;;3.00;2.03;;;20.10;99.90;;;;;;5063207;28;20037;-82
2022/06/26 05:55:43;;;;;;;1.98;1.88;;;20.20;99.90;;;;;;5062947;28;20074;-82
2022/06/26 05:58:10;;;;;;;2.47;1.90;;;20.30;99.90;;;;;;5073133;28;20029;-81
2022/06/26 06:00:36;;;;;;;3.88;2.20;;;20.40;99.90;;;;;;5065147;28;20020;-82
2022/06/26 06:03:03;;;;;;;8.35;2.67;;;20.40;99.90;;;;;;5069129;28;20039;-81
2022/06/26 06:05:28;;;;;;;4.18;1.88;;;20.50;99.90;;;;;;5072826;28;20036;-81
2022/06/26 06:07:55;;;;;;;7.28;2.58;;;20.60;99.90;;;;;;5067646;28;20048;-81
2022/06/26 06:10:22;;;;;;;4.50;2.20;;;20.70;99.90;;;;;;5064440;28;20033;-81
2022/06/26 06:12:49;;;;;;;4.13;2.40;;;20.70;99.90;;;;;;5060898;28;20116;-82
2022/06/26 06:15:15;;;;;;;5.70;2.42;;;20.80;99.90;;;;;;5064242;28;20027;-81
2022/06/26 06:17:41;;;;;;;4.00;2.40;;;20.90;99.90;;;;;;5072123;28;20032;-81
2022/06/26 06:20:10;;;;;;;4.07;2.63;;;20.90;99.90;;;;;;5070391;28;20070;-81
2022/06/26 06:22:37;;;;;;;2.85;2.35;;;21.00;99.90;;;;;;5072543;28;20078;-81
2022/06/26 06:25:03;;;;;;;4.22;2.63;;;21.00;99.90;;;;;;5059899;28;20029;-81
2022/06/26 06:27:29;;;;;;;2.50;2.30;;;21.00;99.90;;;;;;5072624;28;20043;-81
2022/06/26 06:29:55;;;;;;;2.75;2.33;;;21.10;99.90;;;;;;5071425;28;20111;-81
2022/06/26 06:32:20;;;;;;;2.33;2.13;;;21.10;99.90;;;;;;5070663;28;20063;-81
2022/06/26 06:34:47;;;;;;;4.10;2.63;;;21.10;99.90;;;;;;5071468;28;20466;-81
2022/06/26 06:37:13;;;;;;;3.53;2.80;;;21.20;99.90;;;;;;5070663;28;20085;-81
2022/06/26 06:39:38;;;;;;;3.58;2.85;;;21.20;99.90;;;;;;5071558;28;20403;-81
2022/06/26 06:42:04;;;;;;;3.33;2.50;;;21.30;99.90;;;;;;5071092;28;20036;-81
2022/06/26 06:44:32;;;;;;;10.32;3.08;;;21.40;99.90;;;;;;5071188;28;20105;-81
2022/06/26 06:46:58;;;;;;;4.25;2.70;;;21.50;99.90;;;;;;5061463;28;20039;-81
2022/06/26 06:49:23;;;;;;;6.15;2.95;;;21.50;99.90;;;;;;5061466;28;20415;-81
2022/06/26 06:51:49;;;;;;;3.15;2.50;;;21.70;99.90;;;;;;5066815;28;20024;-81
2022/06/26 06:54:15;;;;;;;2.88;2.40;;;21.80;99.90;;;;;;5067461;28;20029;-81
2022/06/26 06:56:40;;;;;;;3.53;2.33;;;21.80;99.90;;;;;;5073973;28;20036;-81
2022/06/26 06:59:06;;;;;;;3.45;2.58;;;21.90;99.90;;;;;;5074944;28;20480;-81
2022/06/26 07:01:31;;;;;;;2.97;2.60;;;22.00;99.90;;;;;;5073517;28;20032;-82
2022/06/26 07:03:57;;;;;;;5.90;2.10;;;22.00;99.90;;;;;;5074426;28;20035;-81
2022/06/26 07:06:23;;;;;;;4.70;2.42;;;22.10;99.90;;;;;;5072096;28;20024;-82
2022/06/26 07:08:49;;;;;;;3.47;2.30;;;22.20;99.90;;;;;;5074575;28;20038;-82
2022/06/26 07:11:14;;;;;;;2.53;1.95;;;22.20;99.90;;;;;;5075313;28;20032;-82
2022/06/26 07:13:40;;;;;;;2.55;2.35;;;22.30;99.90;;;;;;5074224;28;20032;-82
2022/06/26 07:16:05;;;;;;;4.63;2.78;;;22.30;99.90;;;;;;5071349;28;20020;-82
2022/06/26 07:18:31;;;;;;;4.00;1.70;;;22.40;99.90;;;;;;5063766;28;20036;-82
2022/06/26 07:20:57;;;;;;;5.82;2.35;;;22.50;99.90;;;;;;5071866;28;20024;-83
2022/06/26 07:23:23;;;;;;;3.60;2.17;;;22.60;99.90;;;;;;5073077;28;20032;-82
2022/06/26 07:25:50;;;;;;;12.20;2.55;;;22.60;99.90;;;;;;5072562;28;20029;-82
2022/06/26 07:28:15;;;;;;;3.33;1.98;;;22.70;99.90;;;;;;5071119;28;20025;-82
2022/06/26 07:30:42;;;;;;;6.53;2.28;;;22.70;99.90;;;;;;5070804;28;20039;-82
2022/06/26 07:35:53;;;;;;;2.53;2.25;;;22.90;99.90;;;;;;5067048;28;20124;-81
2022/06/26 07:38:19;;;;;;;7.95;2.70;;;23.00;99.90;;;;;;5073008;28;20512;-82
2022/06/26 07:40:44;;;;;;;3.42;2.40;;;23.10;99.90;;;;;;5055728;28;20025;-81
2022/06/26 07:43:10;;;;;;;3.80;2.30;;;23.20;99.90;;;;;;5070271;28;20438;-82
2022/06/26 07:45:36;;;;;;;4.50;2.10;;;23.30;99.90;;;;;;5066885;28;20045;-81
2022/06/26 07:48:02;;;;;;;4.82;1.80;;;23.40;99.90;;;;;;5074394;28;20453;-81
2022/06/26 07:50:28;;;;;;;4.07;2.25;;;23.40;99.90;;;;;;5066087;28;20044;-81
2022/06/26 07:52:54;;;;;;;6.95;2.45;;;23.40;99.90;;;;;;5072297;28;20115;-81
2022/06/26 07:55:20;;;;;;;3.72;2.00;;;23.50;99.90;;;;;;5072703;28;20962;-81
2022/06/26 07:57:45;;;;;;;3.97;1.90;;;23.50;99.90;;;;;;5072630;28;20021;-81
2022/06/26 08:00:11;;;;;;;4.55;1.33;;;23.60;99.90;;;;;;5074783;28;20047;-80
2022/06/26 08:02:39;;;;;;;4.75;1.30;;;23.70;99.90;;;;;;5073867;28;20468;-81
2022/06/26 08:05:05;;;;;;;2.13;1.23;;;23.90;99.90;;;;;;5068870;28;20021;-81
2022/06/26 08:07:31;;;;;;;6.45;1.45;;;24.10;99.90;;;;;;5071424;28;20110;-81
2022/06/26 08:09:56;;;;;;;0.93;0.93;;;24.20;99.90;;;;;;5075451;28;20032;-81
2022/06/26 08:12:22;;;;;;;2.47;1.30;;;24.40;99.90;;;;;;5071390;28;20058;-81
2022/06/26 08:14:48;;;;;;;1.65;1.20;;;24.40;99.90;;;;;;5073021;28;20024;-81
2022/06/26 08:17:13;;;;;;;3.10;1.13;;;24.50;99.90;;;;;;5073450;28;20021;-81
2022/06/26 08:19:39;;;;;;;1.92;1.05;;;24.60;99.90;;;;;;5073275;28;20036;-81
2022/06/26 08:22:05;;;;;;;1.48;1.35;;;24.70;99.90;;;;;;5070739;28;20062;-81
2022/06/26 08:24:32;;;;;;;1.92;1.20;;;24.60;99.90;;;;;;5072819;28;20078;-81
2022/06/26 08:26:58;;;;;;;2.30;1.20;;;24.50;99.90;;;;;;5069990;28;20526;-81
2022/06/26 08:29:24;;;;;;;1.67;1.50;;;24.60;99.90;;;;;;5069329;28;20029;-81
2022/06/26 08:31:50;;;;;;;5.22;1.55;;;24.70;99.90;;;;;;5072902;28;20472;-81
2022/06/26 08:34:15;;;;;;;1.50;1.27;;;24.70;99.90;;;;;;5072968;28;20036;-81
2022/06/26 08:36:41;;;;;;;4.25;1.20;;;24.60;99.90;;;;;;5073348;28;20036;-80
2022/06/26 08:39:07;;;;;;;4.50;1.67;;;24.70;99.90;;;;;;5073040;28;20109;-81
2022/06/26 08:41:39;;;;;;;2.33;1.25;;;24.80;99.90;;;;;;5070945;28;20028;-81
2022/06/26 08:44:06;;;;;;;6.68;1.23;;;24.90;99.90;;;;;;5062434;28;20423;-81
2022/06/26 08:46:38;;;;;;;2.20;1.17;;;25.00;99.90;;;;;;5063502;28;20362;-82
2022/06/26 08:49:13;;;;;;;2.05;1.10;;;25.00;99.90;;;;;;5072212;28;20029;-81
2022/06/26 08:51:43;;;;;;;3.53;1.60;;;25.00;99.90;;;;;;5068850;28;20059;-81
2022/06/26 08:54:12;;;;;;;1.83;0.98;;;25.10;99.90;;;;;;5068112;28;20020;-81
2022/06/26 08:56:39;;;;;;;1.38;1.10;;;25.10;99.90;;;;;;5070903;28;20381;-81
2022/06/26 08:59:05;;;;;;;2.70;1.10;;;25.20;99.90;;;;;;5070985;28;20028;-81
2022/06/26 09:01:30;;;;;;;2.28;1.00;;;25.20;98.10;;;;;;5069468;28;20400;-81
2022/06/26 09:03:56;;;;;;;2.05;0.90;;;25.20;92.00;;;;;;5069965;28;20040;-80
2022/06/26 09:06:22;;;;;;;2.95;1.30;;;25.20;97.40;;;;;;5070292;28;20024;-81
2022/06/26 09:08:49;;;;;;;4.68;1.10;;;25.30;93.20;;;;;;5070364;28;20037;-81
2022/06/26 09:11:16;;;;;;;2.22;1.00;;;25.40;97.20;;;;;;5065572;28;20032;-80
2022/06/26 09:13:43;;;;;;;4.78;1.42;;;25.50;93.80;;;;;;5072775;28;20039;-80
2022/06/26 09:16:09;;;;;;;1.02;1.00;;;25.60;98.30;;;;;;5060494;28;20024;-81
2022/06/26 09:18:41;;;;;;;1.98;1.38;;;25.70;99.40;;;;;;5067350;28;20028;-81
2022/06/26 09:21:09;;;;;;;2.13;1.15;;;25.70;99.90;;;;;;5060538;28;20419;-81
2022/06/26 09:23:36;;;;;;;2.33;1.25;;;25.80;99.90;;;;;;5070745;28;20032;-81
2022/06/26 09:26:03;;;;;;;2.30;1.25;;;25.90;99.90;;;;;;5071571;28;20052;-81
2022/06/26 09:28:30;;;;;;;2.20;1.40;;;25.90;99.90;;;;;;5071607;28;20024;-81
2022/06/26 09:31:03;;;;;;;1.08;0.98;;;25.90;99.70;;;;;;5071843;28;20377;-81
2022/06/26 09:33:34;;;;;;;0.80;0.80;;;25.80;98.20;;;;;;5073213;28;20577;-81
2022/06/26 09:36:03;;;;;;;3.42;0.85;;;25.70;96.30;;;;;;5067628;28;20018;-81
2022/06/26 09:38:34;;;;;;;1.48;1.00;;;25.70;93.60;;;;;;5068778;28;20021;-81
2022/06/26 09:41:08;;;;;;;1.38;1.10;;;25.70;98.20;;;;;;5071036;28;20028;-82
2022/06/26 09:43:40;;;;;;;1.05;1.00;;;25.70;95.30;;;;;;5070192;28;20024;-81
2022/06/26 09:46:08;;;;;;;3.90;0.80;;;25.80;96.60;;;;;;5072620;28;20032;-81
2022/06/26 09:48:34;;;;;;;2.13;0.73;;;25.80;90.60;;;;;;5068123;28;20028;-81
2022/06/26 09:51:01;;;;;;;2.20;0.85;;;25.80;88.80;;;;;;5064780;28;20075;-81
2022/06/26 09:53:28;;;;;;;1.33;0.90;;;25.70;90.80;;;;;;5065853;28;20047;-81
2022/06/26 09:55:55;;;;;;;1.80;0.90;;;25.60;93.50;;;;;;5064857;28;20052;-81
2022/06/26 09:58:22;;;;;;;1.25;1.08;;;25.50;96.60;;;;;;5070818;28;20085;-81
2022/06/26 10:06:27;;;;;;;1.77;1.20;;;25.60;95.90;;;;;;5071312;28;20040;-81
2022/06/26 10:08:55;;;;;;;2.50;0.90;;;26.00;97.00;;;;;;5069129;28;20040;-81
2022/06/26 10:11:24;;;;;;;2.45;1.10;;;26.20;95.30;;;;;;5071387;28;20063;-81
2022/06/26 10:13:54;;;;;;;1.55;0.85;;;26.30;95.80;;;;;;5069885;28;20086;-81
2022/06/26 10:16:53;;;;;;;2.13;1.00;;;26.30;88.40;;;;;;5068348;28;20512;-81
2022/06/26 10:19:28;;;;;;;2.42;0.80;;;26.40;89.80;;;;;;5060548;28;20025;-81
2022/06/26 10:21:54;;;;;;;1.27;0.98;;;26.50;93.10;;;;;;5070493;28;20427;-81
2022/06/26 10:24:20;;;;;;;2.45;0.95;;;26.60;90.30;;;;;;5067263;28;20453;-81
2022/06/26 10:26:53;;;;;;;1.27;0.80;;;26.60;88.40;;;;;;5067470;28;20035;-80
2022/06/26 10:29:19;;;;;;;1.13;0.80;;;26.70;85.90;;;;;;5068133;28;20476;-81
2022/06/26 10:31:48;;;;;;;4.00;1.20;;;26.70;77.30;;;;;;5066042;28;20033;-81
2022/06/26 10:34:16;;;;;;;0.82;0.82;;;26.80;77.10;;;;;;5071626;28;20025;-81
2022/06/26 10:36:41;;;;;;;3.28;0.98;;;26.90;75.70;;;;;;5059228;28;20031;-81
2022/06/26 10:39:07;;;;;;;3.13;0.80;;;27.00;80.40;;;;;;5063876;28;20103;-81
2022/06/26 10:44:45;;;;;;;2.58;0.90;;;27.10;77.20;;;;;;5061119;28;20102;-81
2022/06/26 10:47:15;;;;;;;3.38;1.00;;;27.10;69.50;;;;;;5067849;28;20028;-81
2022/06/26 10:49:52;;;;;;;1.88;1.00;;;27.10;70.80;;;;;;5086672;28;20509;-81
2022/06/26 10:52:29;;;;;;;3.22;0.70;;;27.10;69.30;;;;;;5076512;28;20028;-81
2022/06/26 10:54:57;;;;;;;1.55;0.90;;;27.20;67.70;;;;;;5070475;28;20065;-80
2022/06/26 10:57:34;;;;;;;2.13;0.93;;;27.20;65.20;;;;;;5064554;28;20017;-80
2022/06/26 11:00:02;;;;;;;1.58;0.73;;;27.20;63.50;;;;;;5064763;28;20021;-80
2022/06/26 11:02:36;;;;;;;5.88;1.42;;;27.20;69.00;;;;;;5061674;28;20156;-81
2022/06/26 11:05:03;;;;;;;2.45;0.63;;;27.10;64.90;;;;;;5064576;28;20770;-80
2022/06/26 11:07:38;;;;;;;1.40;0.93;;;27.10;61.60;;;;;;5063709;28;20053;-80
2022/06/26 11:10:10;;;;;;;1.50;0.75;;;27.00;66.20;;;;;;5048958;28;20036;-80
2022/06/26 11:12:43;;;;;;;0.70;0.70;;;27.10;64.40;;;;;;5068543;28;20036;-80
2022/06/26 11:15:24;;;;;;;2.60;0.80;;;27.30;58.90;;;;;;5068235;28;20408;-80
2022/06/26 11:18:01;;;;;;;2.17;1.02;;;27.40;62.00;;;;;;5065280;28;20027;-81
2022/06/26 11:20:53;;;;;;;0.93;0.85;;;27.30;60.60;;;;;;5069189;28;20016;-81
2022/06/26 11:23:27;;;;;;;1.30;0.95;;;27.20;60.80;;;;;;5069951;28;20036;-81
2022/06/26 11:25:56;;;;;;;0.63;0.63;;;27.10;58.80;;;;;;5063146;28;20032;-80
2022/06/26 11:28:33;;;;;;;2.45;1.00;;;27.10;59.90;;;;;;5068328;28;20502;-80
2022/06/26 11:31:01;;;;;;;2.22;0.85;;;27.10;66.40;;;;;;5070344;28;20036;-80
2022/06/26 11:33:29;;;;;;;1.73;1.10;;;27.30;63.60;;;;;;5064197;28;20024;-81
2022/06/26 11:36:00;;;;;;;1.35;1.10;;;27.40;59.30;;;;;;5064418;28;20022;-82
2022/06/26 11:38:25;;;;;;;1.25;0.93;;;27.30;59.90;;;;;;5055213;28;20025;-82
2022/06/26 11:40:51;;;;;;;0.82;0.77;;;27.30;65.90;;;;;;5055687;28;20116;-82
2022/06/26 11:43:18;;;;;;;3.75;1.10;;;27.20;65.20;;;;;;5062987;28;20025;-82
2022/06/26 11:45:45;;;;;;;5.05;1.38;;;27.30;75.80;;;;;;5060482;28;20033;-82
2022/06/26 11:48:16;;;;;;;4.75;1.60;;;27.30;91.20;;;;;;5071949;28;20376;-82
2022/06/26 11:50:48;;;;;;;1.83;1.35;;;27.30;94.00;;;;;;5065087;28;20029;-83
2022/06/26 11:53:33;;;;;;;5.97;1.48;;;27.20;95.90;;;;;;5059953;28;20036;-82
2022/06/26 11:56:03;;;;;;;4.73;1.50;;;27.20;99.90;;;;;;5070330;28;20444;-79
2022/06/26 11:58:32;;;;;;;6.97;1.63;;;27.20;99.90;;;;;;5074414;28;20112;-81
2022/06/26 12:01:10;;;;;;;6.60;1.77;;;27.20;99.90;;;;;;5087395;28;20082;-80
2022/06/26 12:03:47;;;;;;;1.92;1.38;;;27.40;99.90;;;;;;5066673;28;20020;-82
2022/06/26 12:06:31;;;;;;;3.05;2.03;;;27.60;99.90;;;;;;5073425;28;20033;-84
2022/06/26 12:09:01;;;;;;;5.30;1.50;;;27.60;99.90;;;;;;5072850;28;20042;-84
2022/06/26 12:11:27;;;;;;;2.13;1.70;;;27.60;99.80;;;;;;5075459;28;20364;-82
2022/06/26 12:13:53;;;;;;;7.65;1.70;;;27.50;98.60;;;;;;5073918;28;20028;-83
2022/06/26 12:16:19;;;;;;;5.40;1.20;;;27.30;99.90;;;;;;5065038;28;20032;-83
2022/06/26 12:18:47;;;;;;;5.40;1.65;;;27.20;99.90;;;;;;5071302;28;20027;-83
2022/06/26 12:21:21;;;;;;;5.55;1.70;;;27.10;99.90;;;;;;5069191;28;20036;-82
2022/06/26 12:23:49;;;;;;;1.73;1.53;;;27.00;99.90;;;;;;5073891;28;20029;-83
2022/06/26 12:26:21;;;;;;;2.55;1.60;;;27.00;99.90;;;;;;5067409;28;20021;-83
2022/06/26 12:29:00;;;;;;;7.88;1.70;;;27.00;99.90;;;;;;5058325;28;20116;-83
2022/06/26 12:31:26;;;;;;;1.65;1.40;;;26.90;99.90;;;;;;5072649;28;20031;-83
2022/06/26 12:33:53;;;;;;;9.05;1.98;;;26.90;99.90;;;;;;5066453;28;20075;-84
2022/06/26 12:36:19;;;;;;;3.22;1.50;;;26.80;99.90;;;;;;5067732;28;20052;-83
2022/06/26 12:38:46;;;;;;;8.32;1.70;;;26.80;99.90;;;;;;5070821;28;20409;-83
2022/06/26 12:41:18;;;;;;;3.88;2.03;;;26.70;99.90;;;;;;5070516;28;20035;-82
2022/06/26 12:43:54;;;;;;;3.67;1.90;;;26.80;99.90;;;;;;5072388;28;20115;-82
2022/06/26 12:46:20;;;;;;;4.57;1.65;;;26.70;99.90;;;;;;5073252;28;20375;-83
2022/06/26 12:48:47;;;;;;;2.85;1.50;;;26.80;99.90;;;;;;5073474;28;20040;-82
2022/06/26 12:51:14;;;;;;;4.28;1.55;;;27.00;99.90;;;;;;5072984;28;20024;-83
2022/06/26 12:53:41;;;;;;;4.50;1.40;;;27.10;99.90;;;;;;5071659;28;20837;-82
2022/06/26 12:56:08;;;;;;;2.08;1.42;;;27.30;99.90;;;;;;5072261;28;20024;-84
2022/06/26 12:58:34;;;;;;;3.42;1.38;;;27.30;99.90;;;;;;5071954;28;20020;-83
2022/06/26 13:01:00;;;;;;;5.65;1.55;;;27.40;99.90;;;;;;5065441;28;20070;-82
2022/06/26 13:03:25;;;;;;;3.72;1.60;;;27.50;96.80;;;;;;5069719;28;20111;-83